Time;durP1;ratioP1;P1;durP2;ratioP2;P2;SDS_P1;SDS_P2;PMS_P1;PMS_P2;Temp;Humidity;BMP_temperature;BMP_pressure;BME280_temperature;BME280_humidity;BME280_pressure;Samples;Min_cycle;Max_cycle;Signal;HPM_P1;HPM_P2
2023/12/23 00:01:22;;;;;;;2.10;0.60;;;;;;;;;;5037901;28;20439;-70
2023/12/23 00:03:49;;;;;;;1.05;0.50;;;;;;;;;;5041257;28;20507;-69
2023/12/23 00:06:17;;;;;;;1.90;0.50;;;;;;;;;;5035675;28;20431;-69
2023/12/23 00:08:44;;;;;;;0.70;0.50;;;;;;;;;;5034935;28;20516;-70
2023/12/23 00:11:11;;;;;;;1.70;0.40;;;;;;;;;;5035090;28;20783;-72
2023/12/23 00:13:41;;;;;;;0.40;0.40;;;;;;;;;;5041611;28;20444;-71
2023/12/23 00:16:08;;;;;;;1.45;0.40;;;;;;;;;;5029738;28;20435;-71
2023/12/23 00:18:36;;;;;;;0.53;0.37;;;;;;;;;;5036621;28;20431;-72
2023/12/23 00:21:06;;;;;;;0.20;0.20;;;;;;;;;;5042986;28;20445;-71
2023/12/23 00:23:33;;;;;;;0.40;0.40;;;;;;;;;;5035963;28;20904;-72
2023/12/23 00:26:00;;;;;;;1.30;0.40;;;;;;;;;;5034307;28;20432;-72
2023/12/23 00:28:30;;;;;;;0.50;0.30;;;;;;;;;;5034274;28;20434;-72
2023/12/23 00:30:57;;;;;;;0.47;0.30;;;;;;;;;;5038529;28;20464;-71
2023/12/23 00:33:25;;;;;;;0.40;0.30;;;;;;;;;;5035747;28;20942;-71
2023/12/23 00:35:52;;;;;;;0.30;0.30;;;;;;;;;;5040901;28;20436;-71
2023/12/23 00:38:19;;;;;;;1.90;0.40;;;;;;;;;;5041474;28;20480;-71
2023/12/23 00:40:48;;;;;;;1.02;0.30;;;;;;;;;;5041791;28;20792;-71
2023/12/23 00:43:15;;;;;;;0.70;0.30;;;;;;;;;;5034455;28;20435;-71
2023/12/23 00:45:43;;;;;;;0.80;0.22;;;;;;;;;;5029938;28;20439;-71
2023/12/23 00:48:11;;;;;;;3.83;0.50;;;;;;;;;;5041089;28;20465;-72
2023/12/23 00:50:39;;;;;;;0.50;0.40;;;;;;;;;;5030241;28;20527;-72
2023/12/23 00:53:06;;;;;;;0.60;0.30;;;;;;;;;;5038938;28;20819;-72
2023/12/23 00:55:33;;;;;;;0.40;0.40;;;;;;;;;;5041113;28;20428;-71
2023/12/23 00:58:00;;;;;;;1.27;0.50;;;;;;;;;;5041798;28;20433;-71
2023/12/23 01:00:30;;;;;;;0.40;0.40;;;;;;;;;;5036110;28;20438;-70
2023/12/23 01:02:57;;;;;;;0.57;0.40;;;;;;;;;;5034020;28;20489;-71
2023/12/23 01:05:24;;;;;;;0.65;0.47;;;;;;;;;;5024604;28;20473;-71
2023/12/23 01:07:54;;;;;;;0.52;0.52;;;;;;;;;;5045140;28;20461;-71
2023/12/23 01:10:24;;;;;;;0.65;0.50;;;;;;;;;;5029156;28;20911;-71
2023/12/23 01:12:51;;;;;;;1.10;0.40;;;;;;;;;;5039292;28;20949;-71
2023/12/23 01:15:19;;;;;;;0.77;0.60;;;;;;;;;;5032422;28;20441;-71
2023/12/23 01:17:46;;;;;;;1.40;0.40;;;;;;;;;;5042232;28;20434;-72
2023/12/23 01:20:13;;;;;;;0.60;0.35;;;;;;;;;;5045327;28;20437;-71
2023/12/23 01:22:41;;;;;;;1.70;0.52;;;;;;;;;;5045135;28;20432;-72
2023/12/23 01:25:08;;;;;;;0.60;0.60;;;;;;;;;;5031678;28;20430;-71
2023/12/23 01:27:35;;;;;;;1.45;0.50;;;;;;;;;;5039812;28;20433;-70
2023/12/23 01:30:05;;;;;;;1.65;0.60;;;;;;;;;;5039326;28;20452;-70
2023/12/23 01:32:32;;;;;;;1.52;0.50;;;;;;;;;;5031613;28;20445;-70
2023/12/23 01:35:00;;;;;;;1.60;0.40;;;;;;;;;;5043744;28;20571;-70
2023/12/23 01:37:30;;;;;;;1.00;0.60;;;;;;;;;;5036317;28;20462;-69
2023/12/23 01:39:57;;;;;;;3.00;0.47;;;;;;;;;;5027892;28;20437;-69
2023/12/23 01:42:25;;;;;;;2.00;0.70;;;;;;;;;;5040163;28;21252;-70
2023/12/23 01:44:52;;;;;;;1.80;0.68;;;;;;;;;;5037829;28;20516;-70
2023/12/23 01:47:22;;;;;;;1.00;0.50;;;;;;;;;;5041834;28;20512;-70
2023/12/23 01:49:52;;;;;;;1.40;0.40;;;;;;;;;;5032837;28;20489;-70
2023/12/23 01:52:19;;;;;;;1.40;0.70;;;;;;;;;;5033766;28;20436;-69
2023/12/23 01:54:46;;;;;;;2.80;0.60;;;;;;;;;;5046193;28;20435;-70
2023/12/23 01:57:13;;;;;;;1.13;0.60;;;;;;;;;;5037491;28;20433;-70
2023/12/23 01:59:44;;;;;;;0.80;0.63;;;;;;;;;;5045907;28;20550;-70
2023/12/23 02:02:12;;;;;;;1.30;0.60;;;;;;;;;;5050562;28;20425;-69
2023/12/23 02:04:39;;;;;;;0.93;0.47;;;;;;;;;;5041784;28;20463;-70
2023/12/23 02:07:06;;;;;;;1.60;0.80;;;;;;;;;;5040804;28;20430;-69
2023/12/23 02:09:33;;;;;;;1.00;0.60;;;;;;;;;;5041130;28;20841;-70
2023/12/23 02:12:00;;;;;;;2.55;0.50;;;;;;;;;;5042129;28;20525;-71
2023/12/23 02:14:41;;;;;;;1.93;0.70;;;;;;;;;;5043386;28;20973;-70
2023/12/23 02:17:09;;;;;;;1.43;0.67;;;;;;;;;;5042925;28;20431;-70
2023/12/23 02:19:37;;;;;;;2.30;0.52;;;;;;;;;;5041011;28;20421;-70
2023/12/23 02:22:04;;;;;;;1.88;0.60;;;;;;;;;;5040925;28;20438;-70
2023/12/23 02:24:39;;;;;;;1.83;0.90;;;;;;;;;;5032672;28;20510;-71
2023/12/23 02:27:11;;;;;;;1.60;0.70;;;;;;;;;;5042451;28;20429;-70
2023/12/23 02:29:39;;;;;;;1.35;0.60;;;;;;;;;;5038750;28;20437;-71
2023/12/23 02:32:08;;;;;;;3.10;0.90;;;;;;;;;;5041169;28;20433;-70
2023/12/23 02:34:35;;;;;;;1.48;0.70;;;;;;;;;;5042011;28;20441;-70
2023/12/23 02:37:03;;;;;;;1.95;0.60;;;;;;;;;;5042001;28;20433;-72
2023/12/23 02:39:30;;;;;;;0.80;0.70;;;;;;;;;;5036303;28;20435;-69
2023/12/23 02:41:57;;;;;;;1.15;0.60;;;;;;;;;;5034135;28;20449;-70
2023/12/23 02:44:24;;;;;;;1.55;0.68;;;;;;;;;;5036405;28;20443;-71
2023/12/23 02:46:51;;;;;;;2.03;0.80;;;;;;;;;;5038622;28;20441;-71
2023/12/23 02:49:19;;;;;;;1.00;0.67;;;;;;;;;;5033160;28;20435;-70
2023/12/23 02:51:46;;;;;;;2.22;0.80;;;;;;;;;;5043337;28;20509;-72
2023/12/23 02:54:13;;;;;;;1.60;0.80;;;;;;;;;;5033022;28;20427;-71
2023/12/23 02:56:40;;;;;;;1.00;0.75;;;;;;;;;;5041538;28;20421;-71
2023/12/23 02:59:07;;;;;;;0.80;0.60;;;;;;;;;;5033950;28;20430;-72
2023/12/23 03:01:34;;;;;;;1.02;0.60;;;;;;;;;;5038818;28;20437;-71
2023/12/23 03:04:02;;;;;;;1.05;0.60;;;;;;;;;;5038832;28;20523;-73
2023/12/23 03:06:29;;;;;;;1.30;0.70;;;;;;;;;;5040850;28;20459;-71
2023/12/23 03:08:56;;;;;;;2.30;0.60;;;;;;;;;;5039688;28;20513;-71
2023/12/23 03:11:23;;;;;;;1.90;0.52;;;;;;;;;;5039079;28;20435;-71
2023/12/23 03:13:52;;;;;;;0.95;0.75;;;;;;;;;;5034680;28;20430;-71
2023/12/23 03:16:19;;;;;;;1.40;0.68;;;;;;;;;;5030405;28;20778;-71
2023/12/23 03:18:48;;;;;;;2.20;0.63;;;;;;;;;;5038010;28;20466;-72
2023/12/23 03:21:16;;;;;;;2.40;0.60;;;;;;;;;;5034153;28;20453;-72
2023/12/23 03:23:43;;;;;;;2.75;0.80;;;;;;;;;;5032660;28;20466;-71
2023/12/23 03:26:10;;;;;;;2.58;0.60;;;;;;;;;;5044184;28;20425;-71
2023/12/23 03:28:37;;;;;;;0.90;0.60;;;;;;;;;;5038889;28;20482;-71
2023/12/23 03:31:12;;;;;;;1.53;0.70;;;;;;;;;;5036991;28;20437;-72
2023/12/23 03:33:42;;;;;;;2.67;0.77;;;;;;;;;;5039063;28;20467;-71
2023/12/23 03:36:09;;;;;;;1.10;0.80;;;;;;;;;;5044060;28;20432;-71
2023/12/23 03:38:36;;;;;;;2.40;0.95;;;;;;;;;;5041938;28;20841;-72
2023/12/23 03:41:03;;;;;;;3.13;1.10;;;;;;;;;;5030701;28;20929;-72
2023/12/23 03:43:30;;;;;;;2.63;1.00;;;;;;;;;;5036050;28;20788;-72
2023/12/23 03:45:57;;;;;;;2.65;1.02;;;;;;;;;;5041263;28;20437;-73
2023/12/23 03:48:27;;;;;;;2.87;1.17;;;;;;;;;;5038085;28;20441;-72
2023/12/23 03:50:54;;;;;;;1.10;1.00;;;;;;;;;;5038874;28;20441;-72
2023/12/23 03:53:22;;;;;;;2.20;0.90;;;;;;;;;;5036355;28;20471;-71
2023/12/23 03:55:50;;;;;;;5.30;1.20;;;;;;;;;;5046580;28;20440;-72
2023/12/23 03:58:20;;;;;;;3.40;1.10;;;;;;;;;;5044835;28;20460;-72
2023/12/23 04:00:50;;;;;;;5.00;1.10;;;;;;;;;;5037912;28;20504;-71
2023/12/23 04:03:19;;;;;;;3.58;1.10;;;;;;;;;;5045002;28;20834;-71
2023/12/23 04:05:47;;;;;;;2.72;0.90;;;;;;;;;;5034173;28;20430;-72
2023/12/23 04:08:14;;;;;;;2.93;1.03;;;;;;;;;;5041840;28;20504;-71
2023/12/23 04:10:41;;;;;;;3.00;1.10;;;;;;;;;;5040393;28;20446;-71
2023/12/23 04:13:08;;;;;;;8.00;1.23;;;;;;;;;;5036742;28;20442;-71
2023/12/23 04:15:38;;;;;;;4.32;1.00;;;;;;;;;;5041429;28;20811;-72
2023/12/23 04:18:07;;;;;;;5.00;1.25;;;;;;;;;;5042442;28;20428;-72
2023/12/23 04:20:34;;;;;;;3.13;1.10;;;;;;;;;;5042176;28;20442;-72
2023/12/23 04:23:03;;;;;;;3.42;1.05;;;;;;;;;;5031469;28;20430;-73
2023/12/23 04:25:30;;;;;;;3.45;1.40;;;;;;;;;;5038765;28;20464;-72
2023/12/23 04:27:58;;;;;;;2.28;1.13;;;;;;;;;;5038187;28;20516;-71
2023/12/23 04:30:25;;;;;;;2.10;1.17;;;;;;;;;;5040287;28;20812;-70
2023/12/23 04:32:52;;;;;;;3.53;0.80;;;;;;;;;;5045450;28;21098;-70
2023/12/23 04:35:20;;;;;;;2.00;0.80;;;;;;;;;;5044708;28;20442;-71
2023/12/23 04:37:47;;;;;;;3.08;1.00;;;;;;;;;;5029162;28;20473;-71
2023/12/23 04:40:15;;;;;;;2.38;0.80;;;;;;;;;;5044050;28;20452;-70
2023/12/23 04:42:43;;;;;;;2.17;0.70;;;;;;;;;;5036566;28;20429;-69
2023/12/23 04:45:10;;;;;;;2.77;0.80;;;;;;;;;;5040993;28;20424;-71
2023/12/23 04:47:39;;;;;;;0.98;0.68;;;;;;;;;;5035842;28;20946;-71
2023/12/23 04:50:07;;;;;;;1.75;0.80;;;;;;;;;;5045342;28;20466;-71
2023/12/23 04:52:34;;;;;;;3.47;0.73;;;;;;;;;;5042888;28;20969;-70
2023/12/23 04:55:05;;;;;;;2.80;0.88;;;;;;;;;;5032728;28;20437;-71
2023/12/23 04:57:34;;;;;;;0.88;0.52;;;;;;;;;;5043487;28;20497;-72
2023/12/23 05:00:03;;;;;;;1.83;0.73;;;;;;;;;;5041292;28;20461;-73
2023/12/23 05:02:30;;;;;;;2.20;0.90;;;;;;;;;;5043326;28;20425;-72
2023/12/23 05:04:58;;;;;;;2.78;0.70;;;;;;;;;;5029843;28;20427;-72
2023/12/23 05:07:28;;;;;;;2.42;0.70;;;;;;;;;;5038628;28;20481;-71
2023/12/23 05:09:55;;;;;;;1.07;0.53;;;;;;;;;;5045711;28;20927;-72
2023/12/23 05:12:25;;;;;;;0.95;0.68;;;;;;;;;;5033940;28;20445;-72
2023/12/23 05:14:52;;;;;;;2.40;0.80;;;;;;;;;;5033779;28;20435;-72
2023/12/23 05:17:19;;;;;;;1.52;0.70;;;;;;;;;;5033952;28;20442;-71
2023/12/23 05:19:47;;;;;;;2.90;0.93;;;;;;;;;;5038410;28;20425;-72
2023/12/23 05:22:18;;;;;;;1.42;0.60;;;;;;;;;;5040172;28;20500;-71
2023/12/23 05:24:48;;;;;;;2.67;0.60;;;;;;;;;;5043972;28;20425;-69
2023/12/23 05:27:18;;;;;;;1.20;0.52;;;;;;;;;;5028503;28;20482;-72
2023/12/23 05:29:45;;;;;;;1.60;0.60;;;;;;;;;;5035099;28;21180;-69
2023/12/23 05:32:12;;;;;;;2.70;1.10;;;;;;;;;;5037102;28;20852;-70
2023/12/23 05:34:40;;;;;;;1.70;0.60;;;;;;;;;;5035988;28;20428;-70
2023/12/23 05:37:07;;;;;;;1.25;0.63;;;;;;;;;;5046489;28;20440;-72
2023/12/23 05:39:34;;;;;;;0.60;0.60;;;;;;;;;;5048904;28;20498;-73
2023/12/23 05:42:01;;;;;;;1.38;0.60;;;;;;;;;;5042934;28;20478;-70
2023/12/23 05:44:30;;;;;;;0.57;0.38;;;;;;;;;;5027740;28;20502;-71
2023/12/23 05:46:58;;;;;;;1.60;0.60;;;;;;;;;;5044985;28;20474;-70
2023/12/23 05:49:25;;;;;;;0.30;0.30;;;;;;;;;;5043284;28;20431;-71
2023/12/23 05:51:53;;;;;;;1.10;0.43;;;;;;;;;;5039929;28;20511;-69
2023/12/23 05:54:20;;;;;;;0.40;0.40;;;;;;;;;;5039174;28;20441;-70
2023/12/23 05:56:51;;;;;;;1.50;0.60;;;;;;;;;;5039308;28;20433;-72
2023/12/23 05:59:18;;;;;;;0.43;0.40;;;;;;;;;;5043919;28;20455;-71
2023/12/23 06:01:45;;;;;;;1.63;0.40;;;;;;;;;;5041195;28;20456;-71
2023/12/23 06:04:12;;;;;;;2.13;0.50;;;;;;;;;;5040289;28;20505;-71
2023/12/23 06:06:40;;;;;;;1.08;0.60;;;;;;;;;;5048909;28;20468;-71
2023/12/23 06:09:08;;;;;;;0.88;0.32;;;;;;;;;;5038572;28;20916;-71
2023/12/23 06:11:35;;;;;;;1.92;0.50;;;;;;;;;;5036057;28;20521;-71
2023/12/23 06:14:08;;;;;;;0.70;0.40;;;;;;;;;;5041576;28;20436;-71
2023/12/23 06:16:39;;;;;;;2.03;0.57;;;;;;;;;;5040291;28;20842;-71
2023/12/23 06:19:07;;;;;;;0.90;0.40;;;;;;;;;;5044455;28;20535;-71
2023/12/23 06:21:34;;;;;;;1.15;0.40;;;;;;;;;;5042363;28;20479;-71
2023/12/23 06:24:07;;;;;;;1.05;0.60;;;;;;;;;;5044652;28;20507;-71
2023/12/23 06:26:35;;;;;;;1.17;0.40;;;;;;;;;;5041172;28;20505;-71
2023/12/23 06:29:02;;;;;;;2.10;0.57;;;;;;;;;;5038006;28;20430;-70
2023/12/23 06:31:30;;;;;;;1.67;0.60;;;;;;;;;;5037816;28;20457;-71
2023/12/23 06:33:57;;;;;;;2.00;0.65;;;;;;;;;;5035582;28;20489;-71
2023/12/23 06:36:24;;;;;;;1.80;0.65;;;;;;;;;;5029585;28;20438;-71
2023/12/23 06:38:52;;;;;;;2.42;0.60;;;;;;;;;;5048335;28;20494;-70
2023/12/23 06:41:19;;;;;;;1.73;0.70;;;;;;;;;;5039995;28;20427;-70
2023/12/23 06:43:46;;;;;;;3.07;0.70;;;;;;;;;;5040364;28;20418;-70
2023/12/23 06:46:19;;;;;;;2.72;0.77;;;;;;;;;;5044379;28;20432;-71
2023/12/23 06:48:46;;;;;;;3.67;0.63;;;;;;;;;;5031379;28;20433;-72
2023/12/23 06:51:14;;;;;;;1.77;0.55;;;;;;;;;;5038232;28;20440;-71
2023/12/23 06:53:41;;;;;;;1.75;0.50;;;;;;;;;;5031540;28;20426;-71
2023/12/23 06:56:08;;;;;;;1.17;0.57;;;;;;;;;;5035968;28;20482;-71
2023/12/23 06:58:36;;;;;;;1.63;0.60;;;;;;;;;;5034334;28;20429;-71
2023/12/23 07:01:03;;;;;;;2.95;0.43;;;;;;;;;;5037995;28;20516;-71
2023/12/23 07:03:30;;;;;;;1.40;0.50;;;;;;;;;;5040227;28;20431;-71
2023/12/23 07:05:58;;;;;;;3.53;0.80;;;;;;;;;;5041718;28;20956;-71
2023/12/23 07:08:25;;;;;;;2.45;0.50;;;;;;;;;;5034599;28;20425;-69
2023/12/23 07:10:52;;;;;;;1.80;0.50;;;;;;;;;;5036295;28;20602;-70
2023/12/23 07:13:20;;;;;;;1.77;0.50;;;;;;;;;;5036328;28;20438;-69
2023/12/23 07:15:47;;;;;;;3.22;0.70;;;;;;;;;;5039177;28;20431;-69
2023/12/23 07:18:14;;;;;;;2.95;0.70;;;;;;;;;;5040461;28;20432;-70
2023/12/23 07:20:42;;;;;;;2.05;0.98;;;;;;;;;;5045798;28;20437;-70
2023/12/23 07:23:10;;;;;;;3.53;0.77;;;;;;;;;;5037696;28;20888;-70
2023/12/23 07:25:37;;;;;;;1.77;0.65;;;;;;;;;;5025949;28;20445;-70
2023/12/23 07:28:04;;;;;;;2.03;0.60;;;;;;;;;;5033227;28;20524;-69
2023/12/23 07:30:40;;;;;;;2.38;0.60;;;;;;;;;;5037681;28;20494;-70
2023/12/23 07:33:07;;;;;;;1.70;0.70;;;;;;;;;;5034426;28;20443;-70
2023/12/23 07:35:40;;;;;;;3.45;0.70;;;;;;;;;;5037097;28;20432;-70
2023/12/23 07:38:08;;;;;;;1.88;0.70;;;;;;;;;;5035015;28;20442;-70
2023/12/23 07:40:35;;;;;;;4.00;0.75;;;;;;;;;;5036332;28;20804;-70
2023/12/23 07:43:06;;;;;;;2.40;0.90;;;;;;;;;;5032293;28;20509;-70
2023/12/23 07:45:33;;;;;;;2.60;0.60;;;;;;;;;;5035614;28;20536;-70
2023/12/23 07:48:03;;;;;;;4.82;0.68;;;;;;;;;;5036952;28;20512;-70
2023/12/23 07:50:30;;;;;;;4.07;0.75;;;;;;;;;;5033890;28;20525;-71
2023/12/23 07:52:58;;;;;;;3.65;0.95;;;;;;;;;;5043392;28;20885;-70
2023/12/23 07:55:26;;;;;;;1.75;0.65;;;;;;;;;;5043336;28;20465;-70
2023/12/23 07:57:55;;;;;;;1.63;0.52;;;;;;;;;;5033431;28;21713;-71
2023/12/23 08:00:22;;;;;;;3.47;0.80;;;;;;;;;;5035343;28;20444;-70
2023/12/23 08:02:50;;;;;;;0.77;0.50;;;;;;;;;;5037414;28;20421;-71
2023/12/23 08:05:19;;;;;;;1.58;0.60;;;;;;;;;;5031266;28;20522;-71
2023/12/23 08:07:47;;;;;;;2.30;0.57;;;;;;;;;;5043785;28;20508;-71
2023/12/23 08:10:17;;;;;;;1.58;0.50;;;;;;;;;;5038691;28;21074;-71
2023/12/23 08:12:44;;;;;;;3.05;0.70;;;;;;;;;;5042756;28;20460;-71
2023/12/23 08:15:11;;;;;;;1.40;0.60;;;;;;;;;;5037111;28;20438;-71
2023/12/23 08:17:40;;;;;;;1.90;0.60;;;;;;;;;;5032688;28;21289;-72
2023/12/23 08:20:07;;;;;;;2.53;0.60;;;;;;;;;;5042099;28;20488;-71
2023/12/23 08:22:34;;;;;;;2.40;0.77;;;;;;;;;;5039006;28;20437;-71
2023/12/23 08:25:05;;;;;;;1.65;0.70;;;;;;;;;;5045317;28;20526;-71
2023/12/23 08:27:35;;;;;;;1.87;0.50;;;;;;;;;;5035102;28;20431;-71
2023/12/23 08:30:02;;;;;;;2.25;0.63;;;;;;;;;;5046477;28;20518;-71
2023/12/23 08:32:36;;;;;;;2.80;0.63;;;;;;;;;;5034465;28;20442;-69
2023/12/23 08:35:04;;;;;;;1.55;0.90;;;;;;;;;;5043758;28;20527;-71
2023/12/23 08:37:31;;;;;;;1.70;0.60;;;;;;;;;;5042247;28;20430;-72
2023/12/23 08:39:58;;;;;;;1.40;0.60;;;;;;;;;;5040867;28;20421;-70
2023/12/23 08:42:25;;;;;;;1.60;0.70;;;;;;;;;;5030367;28;20429;-72
2023/12/23 08:44:53;;;;;;;3.88;0.93;;;;;;;;;;5034622;28;20438;-71
2023/12/23 08:47:20;;;;;;;1.50;0.57;;;;;;;;;;5036035;28;20479;-72
2023/12/23 08:49:47;;;;;;;2.03;0.53;;;;;;;;;;5034489;28;20459;-71
2023/12/23 08:52:18;;;;;;;2.75;0.57;;;;;;;;;;5040239;28;20435;-72
2023/12/23 08:54:46;;;;;;;2.15;0.60;;;;;;;;;;5039932;28;20468;-72
2023/12/23 08:57:13;;;;;;;0.60;0.32;;;;;;;;;;5036739;28;20569;-72
2023/12/23 08:59:40;;;;;;;0.60;0.40;;;;;;;;;;5043273;28;20433;-71
2023/12/23 09:02:07;;;;;;;0.90;0.40;;;;;;;;;;5037884;28;20508;-72
2023/12/23 09:04:42;;;;;;;0.63;0.30;;;;;;;;;;5028690;28;20559;-72
2023/12/23 09:07:09;;;;;;;0.40;0.40;;;;;;;;;;5038185;28;21273;-71
2023/12/23 09:09:36;;;;;;;1.23;0.50;;;;;;;;;;5037746;28;20483;-71
2023/12/23 09:12:04;;;;;;;0.40;0.30;;;;;;;;;;5045952;28;20433;-71
2023/12/23 09:14:31;;;;;;;1.75;0.50;;;;;;;;;;5038409;28;20441;-71
2023/12/23 09:16:59;;;;;;;0.93;0.38;;;;;;;;;;5035706;28;20531;-71
2023/12/23 09:19:26;;;;;;;0.43;0.40;;;;;;;;;;5044852;28;20432;-72
2023/12/23 09:21:55;;;;;;;0.60;0.30;;;;;;;;;;5036358;28;20462;-71
2023/12/23 09:24:22;;;;;;;0.60;0.30;;;;;;;;;;5043307;28;20429;-71
2023/12/23 09:26:49;;;;;;;0.50;0.50;;;;;;;;;;5032283;28;20546;-71
2023/12/23 09:29:16;;;;;;;0.47;0.40;;;;;;;;;;5039120;28;20469;-70
2023/12/23 09:31:44;;;;;;;0.70;0.20;;;;;;;;;;5034467;28;20434;-71
2023/12/23 09:34:11;;;;;;;0.30;0.30;;;;;;;;;;5039260;28;20708;-70
2023/12/23 09:36:38;;;;;;;0.47;0.40;;;;;;;;;;5042410;28;20541;-70
2023/12/23 09:39:05;;;;;;;0.30;0.30;;;;;;;;;;5036828;28;20433;-72
2023/12/23 09:41:32;;;;;;;0.20;0.20;;;;;;;;;;5040689;28;20447;-70
2023/12/23 09:43:59;;;;;;;0.52;0.30;;;;;;;;;;5038622;28;21247;-70
2023/12/23 09:46:27;;;;;;;1.73;0.27;;;;;;;;;;5036455;28;20559;-70
2023/12/23 09:48:54;;;;;;;0.20;0.20;;;;;;;;;;5036852;28;20476;-70
2023/12/23 09:51:23;;;;;;;0.38;0.30;;;;;;;;;;5037767;28;20430;-70
2023/12/23 09:53:55;;;;;;;0.30;0.30;;;;;;;;;;5036343;28;20441;-70
2023/12/23 09:56:22;;;;;;;0.30;0.30;;;;;;;;;;5037661;28;20966;-70
2023/12/23 09:58:49;;;;;;;0.20;0.20;;;;;;;;;;5035684;28;20425;-70
2023/12/23 10:01:16;;;;;;;0.20;0.20;;;;;;;;;;5038774;28;20433;-71
2023/12/23 10:03:44;;;;;;;0.25;0.25;;;;;;;;;;5041064;28;20436;-72
2023/12/23 10:06:13;;;;;;;4.20;0.30;;;;;;;;;;5035848;28;20490;-72
2023/12/23 10:08:43;;;;;;;0.28;0.20;;;;;;;;;;5042796;28;20504;-71
2023/12/23 10:11:10;;;;;;;0.20;0.20;;;;;;;;;;5046290;28;20433;-70
2023/12/23 10:13:38;;;;;;;0.27;0.27;;;;;;;;;;5040397;28;21019;-71
2023/12/23 10:16:06;;;;;;;0.65;0.30;;;;;;;;;;5037972;28;20435;-70
2023/12/23 10:18:33;;;;;;;0.20;0.20;;;;;;;;;;5035560;28;20546;-70
2023/12/23 10:21:00;;;;;;;0.30;0.30;;;;;;;;;;5041588;28;20435;-70
2023/12/23 10:23:29;;;;;;;0.30;0.30;;;;;;;;;;5041080;28;20423;-70
2023/12/23 10:25:56;;;;;;;0.20;0.20;;;;;;;;;;5037432;28;20425;-70
2023/12/23 10:28:25;;;;;;;0.22;0.22;;;;;;;;;;5040983;28;20559;-70
2023/12/23 10:30:55;;;;;;;0.40;0.20;;;;;;;;;;5036287;28;21046;-70
2023/12/23 10:33:26;;;;;;;0.77;0.25;;;;;;;;;;5044826;28;20468;-70
2023/12/23 10:35:57;;;;;;;1.10;0.22;;;;;;;;;;5038250;28;20516;-69
2023/12/23 10:38:26;;;;;;;0.40;0.20;;;;;;;;;;5034792;28;20527;-69
2023/12/23 10:41:16;;;;;;;0.20;0.20;;;;;;;;;;5041131;28;20492;-69
2023/12/23 10:43:44;;;;;;;0.43;0.40;;;;;;;;;;5006314;28;20464;-70
2023/12/23 10:46:11;;;;;;;0.20;0.20;;;;;;;;;;5044116;28;20437;-69
2023/12/23 10:48:40;;;;;;;0.20;0.20;;;;;;;;;;5033628;28;20429;-71
2023/12/23 10:51:08;;;;;;;0.40;0.20;;;;;;;;;;5042061;28;20443;-69
2023/12/23 10:53:35;;;;;;;0.47;0.28;;;;;;;;;;5059520;28;20432;-70
2023/12/23 10:56:02;;;;;;;0.20;0.20;;;;;;;;;;5034694;28;20917;-70
2023/12/23 10:58:30;;;;;;;0.20;0.20;;;;;;;;;;5042761;28;20490;-70
2023/12/23 11:00:59;;;;;;;0.30;0.20;;;;;;;;;;5036739;28;20919;-69
2023/12/23 11:03:28;;;;;;;0.20;0.20;;;;;;;;;;5035864;28;20496;-70
2023/12/23 11:05:55;;;;;;;0.60;0.28;;;;;;;;;;5040913;28;20530;-70
2023/12/23 11:08:24;;;;;;;0.57;0.30;;;;;;;;;;5044859;28;20472;-70
2023/12/23 11:10:52;;;;;;;0.20;0.20;;;;;;;;;;5041113;28;20436;-70
2023/12/23 11:13:22;;;;;;;0.20;0.20;;;;;;;;;;5039706;28;21177;-70
2023/12/23 11:15:49;;;;;;;0.20;0.13;;;;;;;;;;5030290;28;20442;-70
2023/12/23 11:18:16;;;;;;;0.30;0.20;;;;;;;;;;5042089;28;20513;-70
2023/12/23 11:20:44;;;;;;;0.60;0.30;;;;;;;;;;5039584;28;20481;-70
2023/12/23 11:23:27;;;;;;;0.20;0.20;;;;;;;;;;5037816;28;20466;-70
2023/12/23 11:25:54;;;;;;;0.30;0.30;;;;;;;;;;5038748;28;20540;-70
2023/12/23 11:28:22;;;;;;;0.50;0.30;;;;;;;;;;5041084;28;20425;-69
2023/12/23 11:30:50;;;;;;;0.70;0.70;;;;;;;;;;5041622;28;20425;-70
2023/12/23 11:33:23;;;;;;;0.60;0.40;;;;;;;;;;5045644;28;20504;-70
2023/12/23 11:35:51;;;;;;;0.20;0.20;;;;;;;;;;5040381;28;20436;-70
2023/12/23 11:38:20;;;;;;;1.00;0.20;;;;;;;;;;5038112;28;20911;-70
2023/12/23 11:40:48;;;;;;;1.35;0.30;;;;;;;;;;5044363;28;20436;-70
2023/12/23 11:43:16;;;;;;;0.40;0.20;;;;;;;;;;5040925;28;20456;-70
2023/12/23 11:45:48;;;;;;;0.50;0.30;;;;;;;;;;5033243;28;20917;-72
2023/12/23 11:48:18;;;;;;;1.00;0.30;;;;;;;;;;5032261;28;20975;-70
2023/12/23 11:50:45;;;;;;;0.60;0.50;;;;;;;;;;5034543;28;20461;-70
2023/12/23 11:53:14;;;;;;;1.02;0.50;;;;;;;;;;5035612;28;20437;-70
2023/12/23 11:55:42;;;;;;;0.40;0.30;;;;;;;;;;5028080;28;20431;-69
2023/12/23 11:58:10;;;;;;;2.30;0.43;;;;;;;;;;5037229;28;20425;-70
2023/12/23 12:00:40;;;;;;;0.80;0.50;;;;;;;;;;5037660;28;20429;-70
2023/12/23 12:03:07;;;;;;;0.77;0.50;;;;;;;;;;5032728;28;20431;-70
2023/12/23 12:05:35;;;;;;;0.50;0.30;;;;;;;;;;5037745;28;20445;-70
2023/12/23 12:08:03;;;;;;;1.00;0.35;;;;;;;;;;5034135;28;20797;-70
2023/12/23 12:10:30;;;;;;;1.75;0.45;;;;;;;;;;5034454;28;20518;-70
2023/12/23 12:12:57;;;;;;;1.60;0.50;;;;;;;;;;5040446;28;20457;-70
2023/12/23 12:15:24;;;;;;;1.45;0.50;;;;;;;;;;5036727;28;20464;-70
2023/12/23 12:17:55;;;;;;;0.57;0.50;;;;;;;;;;5036868;28;20519;-70
2023/12/23 12:20:23;;;;;;;0.68;0.50;;;;;;;;;;5024760;28;20453;-69
2023/12/23 12:22:50;;;;;;;1.95;0.70;;;;;;;;;;5026070;28;20446;-70
2023/12/23 12:25:18;;;;;;;1.30;0.50;;;;;;;;;;5033553;28;20896;-70
2023/12/23 12:27:45;;;;;;;0.90;0.50;;;;;;;;;;5044894;28;20429;-70
2023/12/23 12:30:13;;;;;;;1.95;0.70;;;;;;;;;;5033203;28;20438;-70
2023/12/23 12:32:51;;;;;;;1.23;0.65;;;;;;;;;;5033858;28;20432;-70
2023/12/23 12:35:19;;;;;;;0.40;0.40;;;;;;;;;;5039053;28;20765;-69
2023/12/23 12:37:46;;;;;;;1.98;0.63;;;;;;;;;;5041256;28;20443;-69
2023/12/23 12:40:14;;;;;;;0.82;0.50;;;;;;;;;;5040088;28;20456;-70
2023/12/23 12:42:45;;;;;;;2.13;0.60;;;;;;;;;;5032242;28;20935;-69
2023/12/23 12:45:12;;;;;;;1.05;0.60;;;;;;;;;;5030286;28;20429;-69
2023/12/23 12:47:39;;;;;;;0.70;0.40;;;;;;;;;;5034899;28;20427;-69
2023/12/23 12:50:07;;;;;;;1.00;0.50;;;;;;;;;;5037806;28;20482;-69
2023/12/23 12:52:35;;;;;;;1.13;0.40;;;;;;;;;;5041941;28;21206;-69
2023/12/23 12:55:04;;;;;;;1.92;0.50;;;;;;;;;;5035125;28;20810;-69
2023/12/23 12:57:32;;;;;;;1.90;0.63;;;;;;;;;;5032034;28;20430;-69
2023/12/23 12:59:59;;;;;;;1.70;0.60;;;;;;;;;;5029267;28;20443;-69
2023/12/23 13:02:26;;;;;;;2.50;0.70;;;;;;;;;;5027609;28;20878;-69
2023/12/23 13:04:54;;;;;;;1.20;0.30;;;;;;;;;;5042157;28;20436;-69
2023/12/23 13:07:23;;;;;;;1.30;0.50;;;;;;;;;;5036200;28;20524;-69
2023/12/23 13:09:50;;;;;;;1.30;0.50;;;;;;;;;;5030714;28;20433;-69
2023/12/23 13:12:17;;;;;;;1.63;0.70;;;;;;;;;;5038894;28;20446;-69
2023/12/23 13:14:46;;;;;;;0.93;0.47;;;;;;;;;;5035315;28;20429;-69
2023/12/23 13:17:13;;;;;;;1.30;0.60;;;;;;;;;;5039059;28;20519;-69
2023/12/23 13:19:40;;;;;;;1.67;0.60;;;;;;;;;;5031705;28;20430;-69
2023/12/23 13:22:07;;;;;;;1.10;0.40;;;;;;;;;;5032790;28;20495;-69
2023/12/23 13:24:34;;;;;;;0.85;0.40;;;;;;;;;;5037527;28;21299;-69
2023/12/23 13:27:02;;;;;;;3.00;0.70;;;;;;;;;;5033224;28;20443;-69
2023/12/23 13:29:29;;;;;;;0.30;0.30;;;;;;;;;;5022107;28;20434;-69
2023/12/23 13:31:57;;;;;;;1.90;0.40;;;;;;;;;;5039045;28;20894;-69
2023/12/23 13:34:24;;;;;;;0.85;0.60;;;;;;;;;;5034933;28;20454;-69
2023/12/23 13:36:52;;;;;;;1.27;0.60;;;;;;;;;;5041652;28;20532;-69
2023/12/23 13:39:19;;;;;;;1.20;0.60;;;;;;;;;;5033788;28;20435;-69
2023/12/23 13:41:46;;;;;;;1.42;0.50;;;;;;;;;;5033757;28;20441;-70
2023/12/23 13:44:13;;;;;;;1.10;0.60;;;;;;;;;;5041701;28;20473;-70
2023/12/23 13:46:41;;;;;;;1.20;0.50;;;;;;;;;;5032034;28;20425;-70
2023/12/23 13:49:08;;;;;;;1.52;0.63;;;;;;;;;;5025901;28;20892;-70
2023/12/23 13:51:36;;;;;;;0.50;0.50;;;;;;;;;;5033432;28;20430;-70
2023/12/23 13:54:05;;;;;;;0.77;0.60;;;;;;;;;;5044359;28;20432;-70
2023/12/23 13:56:35;;;;;;;1.63;0.50;;;;;;;;;;5046696;28;20443;-71
2023/12/23 13:59:02;;;;;;;1.10;0.50;;;;;;;;;;5038808;28;20940;-70
2023/12/23 14:01:32;;;;;;;1.05;0.55;;;;;;;;;;5038736;28;20438;-70
2023/12/23 14:04:02;;;;;;;1.73;0.60;;;;;;;;;;5040802;28;20505;-70
2023/12/23 14:06:29;;;;;;;1.60;0.67;;;;;;;;;;5050108;28;20915;-70
2023/12/23 14:08:56;;;;;;;0.77;0.55;;;;;;;;;;5033121;28;21183;-70
2023/12/23 14:11:26;;;;;;;0.75;0.50;;;;;;;;;;5042429;28;20456;-70
2023/12/23 14:13:53;;;;;;;0.73;0.47;;;;;;;;;;5042078;28;20433;-70
2023/12/23 14:16:21;;;;;;;1.05;0.50;;;;;;;;;;5047593;28;20479;-70
2023/12/23 14:18:48;;;;;;;0.70;0.50;;;;;;;;;;5041467;28;20890;-70
2023/12/23 14:21:19;;;;;;;1.15;0.50;;;;;;;;;;5045488;28;20520;-70
2023/12/23 14:23:46;;;;;;;1.45;0.60;;;;;;;;;;5046317;28;20786;-70
2023/12/23 14:26:15;;;;;;;0.70;0.40;;;;;;;;;;5032940;28;20544;-70
2023/12/23 14:28:43;;;;;;;0.77;0.50;;;;;;;;;;5047347;28;20429;-70
2023/12/23 14:31:13;;;;;;;2.50;0.50;;;;;;;;;;5041435;28;20472;-70
2023/12/23 14:33:43;;;;;;;0.47;0.40;;;;;;;;;;5035054;28;20496;-69
2023/12/23 14:36:10;;;;;;;0.63;0.57;;;;;;;;;;5036941;28;20434;-70
2023/12/23 14:38:37;;;;;;;1.17;0.80;;;;;;;;;;5040021;28;20437;-70
2023/12/23 14:41:04;;;;;;;0.82;0.50;;;;;;;;;;5040595;28;20441;-70
2023/12/23 14:43:32;;;;;;;3.08;0.50;;;;;;;;;;5041064;28;20447;-70
2023/12/23 14:45:59;;;;;;;1.13;0.60;;;;;;;;;;5036916;28;20427;-70
2023/12/23 14:48:26;;;;;;;2.33;0.60;;;;;;;;;;5036429;28;20504;-70